Terminal Aerodrome Forecast
Issued by NWS

Home | Current Version | Previous Version | Graphics & Text | Print | Product List | Glossary On
Versions: 1 2 3 4 5 6 7 8 9 10 11 12 13 14 15 16 17 18 19 20 21
000
FTUS43 KBIS 192300
TAFMOT
TAF
KMOT 192334Z 2000/2024 13006KT P6SM FEW070
     FM201600 15010KT P6SM BKN150
     FM202100 16013KT P6SM -SHRA SCT050 BKN090
      TEMPO 2021/2024 5SM TSRA BKN040CB OVC060=

USA.gov is the U.S. government's official web portal to all federal, state and local government web resources and services.